sensor_id;sensor_type;location;lat;lon;timestamp;P1;durP1;ratioP1;P2;durP2;ratioP2
42036;SDS011;30340;52.004;5.908;2022-09-30T00:00:25;4.07;;;3.30;;
42036;SDS011;30340;52.004;5.908;2022-09-30T00:02:51;4.55;;;3.40;;
42036;SDS011;30340;52.004;5.908;2022-09-30T00:05:16;4.05;;;2.83;;
42036;SDS011;30340;52.004;5.908;2022-09-30T00:07:42;3.22;;;2.92;;
42036;SDS011;30340;52.004;5.908;2022-09-30T00:10:07;3.75;;;3.05;;
42036;SDS011;30340;52.004;5.908;2022-09-30T00:12:33;3.50;;;3.20;;
42036;SDS011;30340;52.004;5.908;2022-09-30T00:14:59;4.53;;;3.15;;
42036;SDS011;30340;52.004;5.908;2022-09-30T00:17:25;4.07;;;3.20;;
42036;SDS011;30340;52.004;5.908;2022-09-30T00:19:52;4.20;;;3.20;;
42036;SDS011;30340;52.004;5.908;2022-09-30T00:22:20;5.32;;;3.47;;
42036;SDS011;30340;52.004;5.908;2022-09-30T00:24:45;4.63;;;3.63;;
42036;SDS011;30340;52.004;5.908;2022-09-30T00:27:12;4.45;;;3.38;;
42036;SDS011;30340;52.004;5.908;2022-09-30T00:29:42;4.75;;;3.05;;
42036;SDS011;30340;52.004;5.908;2022-09-30T00:32:08;4.30;;;3.30;;
42036;SDS011;30340;52.004;5.908;2022-09-30T00:34:33;3.88;;;3.30;;
42036;SDS011;30340;52.004;5.908;2022-09-30T00:37:00;4.03;;;3.28;;
42036;SDS011;30340;52.004;5.908;2022-09-30T00:39:27;4.45;;;3.42;;
42036;SDS011;30340;52.004;5.908;2022-09-30T00:42:00;4.22;;;3.60;;
42036;SDS011;30340;52.004;5.908;2022-09-30T00:47:24;4.03;;;3.25;;
42036;SDS011;30340;52.004;5.908;2022-09-30T00:49:59;3.97;;;2.95;;
42036;SDS011;30340;52.004;5.908;2022-09-30T00:52:29;3.78;;;3.00;;
42036;SDS011;30340;52.004;5.908;2022-09-30T00:54:56;4.82;;;3.72;;
42036;SDS011;30340;52.004;5.908;2022-09-30T00:57:23;4.50;;;3.80;;
42036;SDS011;30340;52.004;5.908;2022-09-30T00:59:49;4.20;;;3.38;;
42036;SDS011;30340;52.004;5.908;2022-09-30T01:02:15;4.53;;;3.63;;
42036;SDS011;30340;52.004;5.908;2022-09-30T01:04:41;4.28;;;3.45;;
42036;SDS011;30340;52.004;5.908;2022-09-30T01:07:08;4.50;;;3.17;;
42036;SDS011;30340;52.004;5.908;2022-09-30T01:09:35;4.70;;;3.90;;
42036;SDS011;30340;52.004;5.908;2022-09-30T01:12:04;6.75;;;3.78;;
42036;SDS011;30340;52.004;5.908;2022-09-30T01:14:33;5.90;;;4.63;;
42036;SDS011;30340;52.004;5.908;2022-09-30T01:17:04;5.57;;;4.30;;
42036;SDS011;30340;52.004;5.908;2022-09-30T01:28:56;5.13;;;3.95;;
42036;SDS011;30340;52.004;5.908;2022-09-30T01:35:16;5.18;;;4.35;;
42036;SDS011;30340;52.004;5.908;2022-09-30T01:38:02;5.30;;;4.28;;
42036;SDS011;30340;52.004;5.908;2022-09-30T01:40:52;4.97;;;4.00;;
42036;SDS011;30340;52.004;5.908;2022-09-30T01:46:36;5.90;;;4.75;;
42036;SDS011;30340;52.004;5.908;2022-09-30T01:51:44;4.60;;;3.85;;
42036;SDS011;30340;52.004;5.908;2022-09-30T01:56:54;5.85;;;4.25;;
42036;SDS011;30340;52.004;5.908;2022-09-30T01:59:28;6.35;;;4.63;;
42036;SDS011;30340;52.004;5.908;2022-09-30T02:02:03;5.90;;;4.57;;
42036;SDS011;30340;52.004;5.908;2022-09-30T02:04:40;5.85;;;4.60;;
42036;SDS011;30340;52.004;5.908;2022-09-30T02:07:10;4.78;;;4.10;;
42036;SDS011;30340;52.004;5.908;2022-09-30T02:09:40;4.93;;;4.35;;
42036;SDS011;30340;52.004;5.908;2022-09-30T02:12:14;5.93;;;4.32;;
42036;SDS011;30340;52.004;5.908;2022-09-30T02:14:44;5.20;;;4.40;;
42036;SDS011;30340;52.004;5.908;2022-09-30T02:17:16;5.45;;;4.18;;
42036;SDS011;30340;52.004;5.908;2022-09-30T02:19:46;5.38;;;4.45;;
42036;SDS011;30340;52.004;5.908;2022-09-30T02:22:47;6.00;;;4.68;;
42036;SDS011;30340;52.004;5.908;2022-09-30T02:25:17;5.65;;;4.68;;
42036;SDS011;30340;52.004;5.908;2022-09-30T02:27:50;6.32;;;4.45;;
42036;SDS011;30340;52.004;5.908;2022-09-30T02:30:20;5.00;;;4.50;;
42036;SDS011;30340;52.004;5.908;2022-09-30T02:32:54;5.97;;;4.45;;
42036;SDS011;30340;52.004;5.908;2022-09-30T02:35:27;5.80;;;4.60;;
42036;SDS011;30340;52.004;5.908;2022-09-30T02:38:04;5.47;;;4.40;;
42036;SDS011;30340;52.004;5.908;2022-09-30T02:40:57;5.78;;;4.32;;
42036;SDS011;30340;52.004;5.908;2022-09-30T02:43:36;6.28;;;4.55;;
42036;SDS011;30340;52.004;5.908;2022-09-30T02:49:17;5.05;;;4.28;;
42036;SDS011;30340;52.004;5.908;2022-09-30T03:00:26;5.68;;;4.63;;
42036;SDS011;30340;52.004;5.908;2022-09-30T03:02:53;5.45;;;4.30;;
42036;SDS011;30340;52.004;5.908;2022-09-30T03:05:24;5.40;;;4.55;;
42036;SDS011;30340;52.004;5.908;2022-09-30T03:07:52;7.03;;;4.85;;
42036;SDS011;30340;52.004;5.908;2022-09-30T03:10:17;6.10;;;4.70;;
42036;SDS011;30340;52.004;5.908;2022-09-30T03:12:57;5.85;;;4.95;;
42036;SDS011;30340;52.004;5.908;2022-09-30T03:15:46;7.85;;;5.38;;
42036;SDS011;30340;52.004;5.908;2022-09-30T03:37:22;7.43;;;5.25;;
42036;SDS011;30340;52.004;5.908;2022-09-30T03:40:14;5.82;;;4.93;;
42036;SDS011;30340;52.004;5.908;2022-09-30T03:42:59;7.13;;;5.15;;
42036;SDS011;30340;52.004;5.908;2022-09-30T03:45:34;7.53;;;5.63;;
42036;SDS011;30340;52.004;5.908;2022-09-30T03:48:03;7.70;;;6.22;;
42036;SDS011;30340;52.004;5.908;2022-09-30T03:50:31;7.22;;;5.85;;
42036;SDS011;30340;52.004;5.908;2022-09-30T03:53:01;7.05;;;5.63;;
42036;SDS011;30340;52.004;5.908;2022-09-30T03:55:28;6.88;;;5.75;;
42036;SDS011;30340;52.004;5.908;2022-09-30T03:57:57;7.15;;;5.93;;
42036;SDS011;30340;52.004;5.908;2022-09-30T04:00:23;8.18;;;6.65;;
42036;SDS011;30340;52.004;5.908;2022-09-30T04:02:48;7.88;;;6.35;;
42036;SDS011;30340;52.004;5.908;2022-09-30T04:05:14;7.35;;;5.88;;
42036;SDS011;30340;52.004;5.908;2022-09-30T04:07:39;7.75;;;5.55;;
42036;SDS011;30340;52.004;5.908;2022-09-30T04:10:05;8.77;;;5.95;;
42036;SDS011;30340;52.004;5.908;2022-09-30T04:12:31;6.38;;;5.32;;
42036;SDS011;30340;52.004;5.908;2022-09-30T04:14:56;7.55;;;5.78;;
42036;SDS011;30340;52.004;5.908;2022-09-30T04:17:22;7.25;;;5.85;;
42036;SDS011;30340;52.004;5.908;2022-09-30T04:19:48;7.50;;;6.22;;
42036;SDS011;30340;52.004;5.908;2022-09-30T04:22:14;7.65;;;6.20;;
42036;SDS011;30340;52.004;5.908;2022-09-30T04:24:39;7.97;;;6.40;;
42036;SDS011;30340;52.004;5.908;2022-09-30T04:27:05;8.63;;;6.50;;
42036;SDS011;30340;52.004;5.908;2022-09-30T04:29:31;8.73;;;6.35;;
42036;SDS011;30340;52.004;5.908;2022-09-30T04:31:56;7.45;;;6.32;;
42036;SDS011;30340;52.004;5.908;2022-09-30T04:34:22;6.25;;;5.45;;
42036;SDS011;30340;52.004;5.908;2022-09-30T04:36:47;6.93;;;5.65;;
42036;SDS011;30340;52.004;5.908;2022-09-30T04:39:13;6.75;;;5.68;;
42036;SDS011;30340;52.004;5.908;2022-09-30T04:41:39;7.28;;;5.60;;
42036;SDS011;30340;52.004;5.908;2022-09-30T04:44:05;6.90;;;5.85;;
42036;SDS011;30340;52.004;5.908;2022-09-30T04:46:31;9.10;;;6.53;;
42036;SDS011;30340;52.004;5.908;2022-09-30T04:49:01;8.98;;;6.85;;
42036;SDS011;30340;52.004;5.908;2022-09-30T04:51:30;9.15;;;5.93;;
42036;SDS011;30340;52.004;5.908;2022-09-30T04:53:55;7.50;;;6.07;;
42036;SDS011;30340;52.004;5.908;2022-09-30T04:56:21;7.95;;;5.82;;
42036;SDS011;30340;52.004;5.908;2022-09-30T04:58:48;8.25;;;5.95;;
42036;SDS011;30340;52.004;5.908;2022-09-30T05:01:16;8.63;;;6.55;;
42036;SDS011;30340;52.004;5.908;2022-09-30T05:03:42;7.82;;;6.05;;
42036;SDS011;30340;52.004;5.908;2022-09-30T05:06:08;8.00;;;6.10;;
42036;SDS011;30340;52.004;5.908;2022-09-30T05:08:35;8.48;;;6.60;;
42036;SDS011;30340;52.004;5.908;2022-09-30T05:11:05;7.82;;;6.13;;
42036;SDS011;30340;52.004;5.908;2022-09-30T05:13:35;9.05;;;6.75;;
42036;SDS011;30340;52.004;5.908;2022-09-30T05:16:04;8.55;;;6.72;;
42036;SDS011;30340;52.004;5.908;2022-09-30T05:18:31;7.15;;;5.50;;
42036;SDS011;30340;52.004;5.908;2022-09-30T05:20:58;6.57;;;5.68;;
42036;SDS011;30340;52.004;5.908;2022-09-30T05:23:25;7.65;;;5.88;;
42036;SDS011;30340;52.004;5.908;2022-09-30T05:25:52;8.15;;;5.82;;
42036;SDS011;30340;52.004;5.908;2022-09-30T05:28:18;7.85;;;6.25;;
42036;SDS011;30340;52.004;5.908;2022-09-30T05:30:44;8.23;;;6.20;;
42036;SDS011;30340;52.004;5.908;2022-09-30T05:33:10;7.53;;;5.30;;
42036;SDS011;30340;52.004;5.908;2022-09-30T05:35:38;7.68;;;6.20;;
42036;SDS011;30340;52.004;5.908;2022-09-30T05:38:05;8.98;;;6.25;;
42036;SDS011;30340;52.004;5.908;2022-09-30T05:40:31;7.80;;;6.38;;
42036;SDS011;30340;52.004;5.908;2022-09-30T05:42:57;7.57;;;6.20;;
42036;SDS011;30340;52.004;5.908;2022-09-30T05:45:24;7.47;;;6.05;;
42036;SDS011;30340;52.004;5.908;2022-09-30T05:47:53;7.90;;;5.95;;
42036;SDS011;30340;52.004;5.908;2022-09-30T05:50:20;7.05;;;5.82;;
42036;SDS011;30340;52.004;5.908;2022-09-30T05:52:46;8.02;;;6.50;;
42036;SDS011;30340;52.004;5.908;2022-09-30T05:55:13;8.20;;;6.53;;
42036;SDS011;30340;52.004;5.908;2022-09-30T05:57:40;9.00;;;6.25;;
42036;SDS011;30340;52.004;5.908;2022-09-30T06:00:06;8.50;;;6.53;;
42036;SDS011;30340;52.004;5.908;2022-09-30T06:02:32;7.90;;;6.40;;
42036;SDS011;30340;52.004;5.908;2022-09-30T06:05:02;8.45;;;6.38;;
42036;SDS011;30340;52.004;5.908;2022-09-30T06:07:28;10.60;;;7.32;;
42036;SDS011;30340;52.004;5.908;2022-09-30T06:09:54;9.35;;;7.45;;
42036;SDS011;30340;52.004;5.908;2022-09-30T06:12:19;9.90;;;7.82;;
42036;SDS011;30340;52.004;5.908;2022-09-30T06:14:52;9.82;;;7.80;;
42036;SDS011;30340;52.004;5.908;2022-09-30T06:17:21;10.95;;;8.30;;
42036;SDS011;30340;52.004;5.908;2022-09-30T06:19:47;14.52;;;10.50;;
42036;SDS011;30340;52.004;5.908;2022-09-30T06:22:16;12.20;;;9.50;;
42036;SDS011;30340;52.004;5.908;2022-09-30T06:24:42;13.45;;;10.68;;
42036;SDS011;30340;52.004;5.908;2022-09-30T06:27:08;15.80;;;12.00;;
42036;SDS011;30340;52.004;5.908;2022-09-30T06:29:33;15.13;;;12.48;;
42036;SDS011;30340;52.004;5.908;2022-09-30T06:31:59;12.98;;;10.68;;
42036;SDS011;30340;52.004;5.908;2022-09-30T06:34:26;16.90;;;14.20;;
42036;SDS011;30340;52.004;5.908;2022-09-30T06:36:51;19.25;;;15.43;;
42036;SDS011;30340;52.004;5.908;2022-09-30T06:39:18;20.23;;;15.73;;
42036;SDS011;30340;52.004;5.908;2022-09-30T06:41:46;15.00;;;13.05;;
42036;SDS011;30340;52.004;5.908;2022-09-30T06:44:12;14.95;;;12.73;;
42036;SDS011;30340;52.004;5.908;2022-09-30T06:46:37;13.77;;;10.70;;
42036;SDS011;30340;52.004;5.908;2022-09-30T06:49:03;14.57;;;11.98;;
42036;SDS011;30340;52.004;5.908;2022-09-30T06:51:30;15.55;;;12.40;;
42036;SDS011;30340;52.004;5.908;2022-09-30T06:54:00;14.30;;;11.77;;
42036;SDS011;30340;52.004;5.908;2022-09-30T06:56:26;16.15;;;13.13;;
42036;SDS011;30340;52.004;5.908;2022-09-30T06:58:52;18.02;;;14.20;;
42036;SDS011;30340;52.004;5.908;2022-09-30T07:01:19;15.50;;;12.23;;
42036;SDS011;30340;52.004;5.908;2022-09-30T07:03:45;13.35;;;10.73;;
42036;SDS011;30340;52.004;5.908;2022-09-30T07:06:12;22.17;;;17.40;;
42036;SDS011;30340;52.004;5.908;2022-09-30T07:08:38;21.23;;;15.85;;
42036;SDS011;30340;52.004;5.908;2022-09-30T07:11:06;21.75;;;16.55;;
42036;SDS011;30340;52.004;5.908;2022-09-30T07:13:36;20.85;;;16.80;;
42036;SDS011;30340;52.004;5.908;2022-09-30T07:16:03;19.45;;;15.70;;
42036;SDS011;30340;52.004;5.908;2022-09-30T07:18:29;20.00;;;16.13;;
42036;SDS011;30340;52.004;5.908;2022-09-30T07:20:55;20.58;;;16.13;;
42036;SDS011;30340;52.004;5.908;2022-09-30T07:23:21;21.00;;;16.30;;
42036;SDS011;30340;52.004;5.908;2022-09-30T07:28:29;22.55;;;17.52;;
42036;SDS011;30340;52.004;5.908;2022-09-30T07:30:58;24.10;;;19.15;;
42036;SDS011;30340;52.004;5.908;2022-09-30T07:33:26;36.20;;;28.63;;
42036;SDS011;30340;52.004;5.908;2022-09-30T07:35:55;28.88;;;23.05;;
42036;SDS011;30340;52.004;5.908;2022-09-30T07:38:22;23.58;;;20.42;;
42036;SDS011;30340;52.004;5.908;2022-09-30T07:40:52;26.30;;;23.50;;
42036;SDS011;30340;52.004;5.908;2022-09-30T07:43:27;23.20;;;17.75;;
42036;SDS011;30340;52.004;5.908;2022-09-30T07:46:12;21.55;;;18.10;;
42036;SDS011;30340;52.004;5.908;2022-09-30T07:48:41;22.52;;;18.90;;
42036;SDS011;30340;52.004;5.908;2022-09-30T07:51:21;17.52;;;14.48;;
42036;SDS011;30340;52.004;5.908;2022-09-30T07:53:48;18.52;;;15.35;;
42036;SDS011;30340;52.004;5.908;2022-09-30T07:56:16;20.05;;;16.63;;
42036;SDS011;30340;52.004;5.908;2022-09-30T07:58:42;22.58;;;18.10;;
42036;SDS011;30340;52.004;5.908;2022-09-30T08:01:08;21.58;;;18.33;;
42036;SDS011;30340;52.004;5.908;2022-09-30T08:03:35;22.58;;;18.25;;
42036;SDS011;30340;52.004;5.908;2022-09-30T08:06:07;22.27;;;17.98;;
42036;SDS011;30340;52.004;5.908;2022-09-30T08:08:34;21.75;;;17.02;;
42036;SDS011;30340;52.004;5.908;2022-09-30T08:11:00;22.02;;;18.55;;
42036;SDS011;30340;52.004;5.908;2022-09-30T08:13:27;23.45;;;20.05;;
42036;SDS011;30340;52.004;5.908;2022-09-30T08:15:52;26.35;;;22.30;;
42036;SDS011;30340;52.004;5.908;2022-09-30T08:18:18;19.45;;;17.15;;
42036;SDS011;30340;52.004;5.908;2022-09-30T08:20:44;19.42;;;15.63;;
42036;SDS011;30340;52.004;5.908;2022-09-30T08:23:09;25.40;;;20.83;;
42036;SDS011;30340;52.004;5.908;2022-09-30T08:25:35;23.92;;;20.70;;
42036;SDS011;30340;52.004;5.908;2022-09-30T08:28:00;21.30;;;17.92;;
42036;SDS011;30340;52.004;5.908;2022-09-30T08:30:26;28.63;;;21.70;;
42036;SDS011;30340;52.004;5.908;2022-09-30T08:32:55;26.40;;;21.80;;
42036;SDS011;30340;52.004;5.908;2022-09-30T08:35:22;22.85;;;18.42;;
42036;SDS011;30340;52.004;5.908;2022-09-30T08:37:47;24.52;;;19.65;;
42036;SDS011;30340;52.004;5.908;2022-09-30T08:40:22;18.42;;;16.00;;
42036;SDS011;30340;52.004;5.908;2022-09-30T08:45:39;19.70;;;16.42;;
42036;SDS011;30340;52.004;5.908;2022-09-30T08:53:48;21.63;;;17.38;;
42036;SDS011;30340;52.004;5.908;2022-09-30T08:56:19;20.88;;;18.13;;
42036;SDS011;30340;52.004;5.908;2022-09-30T08:58:48;18.65;;;16.60;;
42036;SDS011;30340;52.004;5.908;2022-09-30T09:03:51;19.20;;;17.13;;
42036;SDS011;30340;52.004;5.908;2022-09-30T09:12:23;14.95;;;12.80;;
42036;SDS011;30340;52.004;5.908;2022-09-30T09:18:14;18.35;;;16.08;;
42036;SDS011;30340;52.004;5.908;2022-09-30T09:20:54;14.30;;;12.70;;
42036;SDS011;30340;52.004;5.908;2022-09-30T09:23:22;17.10;;;15.30;;
42036;SDS011;30340;52.004;5.908;2022-09-30T09:25:49;15.48;;;13.05;;
42036;SDS011;30340;52.004;5.908;2022-09-30T09:31:04;18.60;;;16.55;;
42036;SDS011;30340;52.004;5.908;2022-09-30T09:33:35;19.40;;;16.52;;
42036;SDS011;30340;52.004;5.908;2022-09-30T09:36:29;18.67;;;16.67;;
42036;SDS011;30340;52.004;5.908;2022-09-30T09:39:08;15.20;;;13.13;;
42036;SDS011;30340;52.004;5.908;2022-09-30T09:44:38;18.02;;;15.98;;
42036;SDS011;30340;52.004;5.908;2022-09-30T09:47:16;13.23;;;11.82;;
42036;SDS011;30340;52.004;5.908;2022-09-30T09:49:44;16.73;;;14.98;;
42036;SDS011;30340;52.004;5.908;2022-09-30T09:52:46;16.33;;;14.63;;
42036;SDS011;30340;52.004;5.908;2022-09-30T09:55:35;18.75;;;15.55;;
42036;SDS011;30340;52.004;5.908;2022-09-30T09:58:05;12.88;;;11.57;;
42036;SDS011;30340;52.004;5.908;2022-09-30T10:00:33;14.38;;;12.27;;
42036;SDS011;30340;52.004;5.908;2022-09-30T10:03:15;15.18;;;13.65;;
42036;SDS011;30340;52.004;5.908;2022-09-30T10:08:27;15.88;;;14.13;;
42036;SDS011;30340;52.004;5.908;2022-09-30T10:10:56;12.82;;;11.52;;
42036;SDS011;30340;52.004;5.908;2022-09-30T10:13:25;12.13;;;10.82;;
42036;SDS011;30340;52.004;5.908;2022-09-30T10:15:54;12.98;;;11.68;;
42036;SDS011;30340;52.004;5.908;2022-09-30T10:18:26;12.95;;;11.60;;
42036;SDS011;30340;52.004;5.908;2022-09-30T10:21:00;12.65;;;11.35;;
42036;SDS011;30340;52.004;5.908;2022-09-30T10:23:32;18.30;;;16.35;;
42036;SDS011;30340;52.004;5.908;2022-09-30T10:28:47;12.68;;;11.38;;
42036;SDS011;30340;52.004;5.908;2022-09-30T10:36:33;12.82;;;11.50;;
42036;SDS011;30340;52.004;5.908;2022-09-30T10:41:48;15.88;;;14.23;;
42036;SDS011;30340;52.004;5.908;2022-09-30T10:44:17;16.02;;;14.32;;
42036;SDS011;30340;52.004;5.908;2022-09-30T10:46:47;12.05;;;10.85;;
42036;SDS011;30340;52.004;5.908;2022-09-30T10:49:27;11.88;;;10.68;;
42036;SDS011;30340;52.004;5.908;2022-09-30T10:51:54;10.32;;;9.32;;
42036;SDS011;30340;52.004;5.908;2022-09-30T10:57:14;14.18;;;12.73;;
42036;SDS011;30340;52.004;5.908;2022-09-30T10:59:51;12.48;;;11.18;;
42036;SDS011;30340;52.004;5.908;2022-09-30T11:02:35;10.88;;;9.77;;
42036;SDS011;30340;52.004;5.908;2022-09-30T11:05:14;9.32;;;8.43;;
42036;SDS011;30340;52.004;5.908;2022-09-30T11:16:20;9.35;;;8.23;;
42036;SDS011;30340;52.004;5.908;2022-09-30T11:24:54;10.10;;;9.00;;
42036;SDS011;30340;52.004;5.908;2022-09-30T11:29:45;14.55;;;9.20;;
42036;SDS011;30340;52.004;5.908;2022-09-30T11:35:08;11.30;;;10.20;;
42036;SDS011;30340;52.004;5.908;2022-09-30T11:43:06;11.38;;;9.55;;
42036;SDS011;30340;52.004;5.908;2022-09-30T11:45:50;9.13;;;7.85;;
42036;SDS011;30340;52.004;5.908;2022-09-30T11:48:38;8.60;;;7.70;;
42036;SDS011;30340;52.004;5.908;2022-09-30T11:53:42;9.10;;;8.10;;
42036;SDS011;30340;52.004;5.908;2022-09-30T11:56:25;11.80;;;10.60;;
42036;SDS011;30340;52.004;5.908;2022-09-30T11:58:57;10.35;;;9.35;;
42036;SDS011;30340;52.004;5.908;2022-09-30T12:01:30;9.80;;;8.25;;
42036;SDS011;30340;52.004;5.908;2022-09-30T12:04:08;9.20;;;8.23;;
42036;SDS011;30340;52.004;5.908;2022-09-30T12:12:22;9.32;;;7.43;;
42036;SDS011;30340;52.004;5.908;2022-09-30T12:15:01;8.07;;;6.70;;
42036;SDS011;30340;52.004;5.908;2022-09-30T12:20:50;8.95;;;7.07;;
42036;SDS011;30340;52.004;5.908;2022-09-30T12:23:24;7.68;;;6.13;;
42036;SDS011;30340;52.004;5.908;2022-09-30T12:25:57;7.72;;;6.30;;
42036;SDS011;30340;52.004;5.908;2022-09-30T12:28:34;7.00;;;5.35;;
42036;SDS011;30340;52.004;5.908;2022-09-30T12:45:06;5.18;;;4.05;;
42036;SDS011;30340;52.004;5.908;2022-09-30T12:47:49;3.17;;;2.88;;
42036;SDS011;30340;52.004;5.908;2022-09-30T12:50:19;4.35;;;3.65;;
42036;SDS011;30340;52.004;5.908;2022-09-30T12:52:49;5.15;;;3.80;;
42036;SDS011;30340;52.004;5.908;2022-09-30T12:57:47;3.08;;;2.47;;
42036;SDS011;30340;52.004;5.908;2022-09-30T13:00:15;3.42;;;2.95;;
42036;SDS011;30340;52.004;5.908;2022-09-30T13:02:52;3.92;;;2.70;;
42036;SDS011;30340;52.004;5.908;2022-09-30T13:23:47;2.47;;;2.28;;
42036;SDS011;30340;52.004;5.908;2022-09-30T13:31:24;2.50;;;1.83;;
42036;SDS011;30340;52.004;5.908;2022-09-30T13:36:29;2.53;;;1.73;;
42036;SDS011;30340;52.004;5.908;2022-09-30T13:44:24;2.78;;;2.38;;
42036;SDS011;30340;52.004;5.908;2022-09-30T13:47:07;1.90;;;1.80;;
42036;SDS011;30340;52.004;5.908;2022-09-30T13:49:50;2.03;;;1.67;;
42036;SDS011;30340;52.004;5.908;2022-09-30T13:52:23;1.70;;;1.50;;
42036;SDS011;30340;52.004;5.908;2022-09-30T13:54:52;2.90;;;1.40;;
42036;SDS011;30340;52.004;5.908;2022-09-30T13:57:22;0.93;;;0.90;;
42036;SDS011;30340;52.004;5.908;2022-09-30T14:21:49;1.70;;;1.50;;
42036;SDS011;30340;52.004;5.908;2022-09-30T14:24:22;4.13;;;2.00;;
42036;SDS011;30340;52.004;5.908;2022-09-30T14:26:56;2.28;;;1.77;;
42036;SDS011;30340;52.004;5.908;2022-09-30T14:32:35;1.60;;;1.50;;
42036;SDS011;30340;52.004;5.908;2022-09-30T14:35:04;3.35;;;1.67;;
42036;SDS011;30340;52.004;5.908;2022-09-30T14:37:36;2.70;;;1.80;;
42036;SDS011;30340;52.004;5.908;2022-09-30T14:40:08;2.08;;;1.50;;
42036;SDS011;30340;52.004;5.908;2022-09-30T14:42:36;1.95;;;1.50;;
42036;SDS011;30340;52.004;5.908;2022-09-30T14:45:05;1.20;;;1.10;;
42036;SDS011;30340;52.004;5.908;2022-09-30T14:47:32;2.38;;;1.67;;
42036;SDS011;30340;52.004;5.908;2022-09-30T14:50:02;2.72;;;1.63;;
42036;SDS011;30340;52.004;5.908;2022-09-30T14:52:35;1.33;;;1.23;;
42036;SDS011;30340;52.004;5.908;2022-09-30T14:55:19;3.60;;;1.60;;
42036;SDS011;30340;52.004;5.908;2022-09-30T14:57:49;1.83;;;1.63;;
42036;SDS011;30340;52.004;5.908;2022-09-30T15:00:25;1.40;;;1.17;;
42036;SDS011;30340;52.004;5.908;2022-09-30T15:02:53;1.40;;;1.05;;
42036;SDS011;30340;52.004;5.908;2022-09-30T15:05:19;2.88;;;1.35;;
42036;SDS011;30340;52.004;5.908;2022-09-30T15:07:44;1.65;;;1.55;;
42036;SDS011;30340;52.004;5.908;2022-09-30T15:10:18;1.48;;;1.33;;
42036;SDS011;30340;52.004;5.908;2022-09-30T15:12:46;2.10;;;1.40;;
42036;SDS011;30340;52.004;5.908;2022-09-30T15:15:21;2.13;;;1.60;;
42036;SDS011;30340;52.004;5.908;2022-09-30T15:17:59;1.67;;;1.30;;
42036;SDS011;30340;52.004;5.908;2022-09-30T15:20:28;2.10;;;1.38;;
42036;SDS011;30340;52.004;5.908;2022-09-30T15:22:57;1.50;;;1.35;;
42036;SDS011;30340;52.004;5.908;2022-09-30T15:25:27;1.70;;;1.17;;
42036;SDS011;30340;52.004;5.908;2022-09-30T15:27:54;2.50;;;1.60;;
42036;SDS011;30340;52.004;5.908;2022-09-30T15:30:22;1.75;;;1.30;;
42036;SDS011;30340;52.004;5.908;2022-09-30T15:32:59;2.03;;;1.33;;
42036;SDS011;30340;52.004;5.908;2022-09-30T15:35:27;1.50;;;1.40;;
42036;SDS011;30340;52.004;5.908;2022-09-30T15:37:53;1.98;;;1.20;;
42036;SDS011;30340;52.004;5.908;2022-09-30T15:40:34;1.50;;;1.10;;
42036;SDS011;30340;52.004;5.908;2022-09-30T15:43:14;1.95;;;1.10;;
42036;SDS011;30340;52.004;5.908;2022-09-30T15:45:52;1.38;;;1.05;;
42036;SDS011;30340;52.004;5.908;2022-09-30T15:50:59;2.45;;;1.50;;
42036;SDS011;30340;52.004;5.908;2022-09-30T15:53:46;2.78;;;1.40;;
42036;SDS011;30340;52.004;5.908;2022-09-30T15:58:58;3.10;;;1.50;;
42036;SDS011;30340;52.004;5.908;2022-09-30T16:01:30;2.58;;;1.10;;
42036;SDS011;30340;52.004;5.908;2022-09-30T16:04:03;2.15;;;1.35;;
42036;SDS011;30340;52.004;5.908;2022-09-30T16:06:46;2.13;;;1.80;;
42036;SDS011;30340;52.004;5.908;2022-09-30T16:09:33;5.50;;;3.80;;
42036;SDS011;30340;52.004;5.908;2022-09-30T16:12:02;4.03;;;2.20;;
42036;SDS011;30340;52.004;5.908;2022-09-30T16:14:39;2.97;;;2.40;;
42036;SDS011;30340;52.004;5.908;2022-09-30T16:17:13;4.38;;;2.72;;
42036;SDS011;30340;52.004;5.908;2022-09-30T16:19:48;2.83;;;2.15;;
42036;SDS011;30340;52.004;5.908;2022-09-30T16:27:35;3.22;;;2.35;;
42036;SDS011;30340;52.004;5.908;2022-09-30T16:30:02;2.30;;;1.90;;
42036;SDS011;30340;52.004;5.908;2022-09-30T16:32:31;2.55;;;1.98;;
42036;SDS011;30340;52.004;5.908;2022-09-30T16:35:01;4.38;;;2.10;;
42036;SDS011;30340;52.004;5.908;2022-09-30T16:37:27;1.65;;;1.30;;
42036;SDS011;30340;52.004;5.908;2022-09-30T16:39:54;1.95;;;1.20;;
42036;SDS011;30340;52.004;5.908;2022-09-30T16:42:20;2.30;;;1.60;;
42036;SDS011;30340;52.004;5.908;2022-09-30T16:44:46;3.67;;;2.50;;
42036;SDS011;30340;52.004;5.908;2022-09-30T16:47:13;3.03;;;2.00;;
42036;SDS011;30340;52.004;5.908;2022-09-30T16:49:40;2.63;;;1.90;;
42036;SDS011;30340;52.004;5.908;2022-09-30T16:52:07;2.47;;;1.58;;
42036;SDS011;30340;52.004;5.908;2022-09-30T16:54:34;2.60;;;1.90;;
42036;SDS011;30340;52.004;5.908;2022-09-30T16:56:59;2.17;;;1.92;;
42036;SDS011;30340;52.004;5.908;2022-09-30T16:59:25;1.95;;;1.65;;
42036;SDS011;30340;52.004;5.908;2022-09-30T17:01:51;41.05;;;24.23;;
42036;SDS011;30340;52.004;5.908;2022-09-30T17:04:17;50.22;;;35.08;;
42036;SDS011;30340;52.004;5.908;2022-09-30T17:06:42;24.67;;;19.13;;
42036;SDS011;30340;52.004;5.908;2022-09-30T17:09:08;11.80;;;8.85;;
42036;SDS011;30340;52.004;5.908;2022-09-30T17:11:34;13.80;;;9.77;;
42036;SDS011;30340;52.004;5.908;2022-09-30T17:14:02;73.63;;;54.20;;
42036;SDS011;30340;52.004;5.908;2022-09-30T17:16:29;12.30;;;9.73;;
42036;SDS011;30340;52.004;5.908;2022-09-30T17:18:55;8.48;;;7.57;;
42036;SDS011;30340;52.004;5.908;2022-09-30T17:21:21;7.20;;;6.45;;
42036;SDS011;30340;52.004;5.908;2022-09-30T17:23:48;5.57;;;4.97;;
42036;SDS011;30340;52.004;5.908;2022-09-30T17:26:13;3.60;;;3.30;;
42036;SDS011;30340;52.004;5.908;2022-09-30T17:28:39;7.20;;;4.95;;
42036;SDS011;30340;52.004;5.908;2022-09-30T17:31:06;3.78;;;3.03;;
42036;SDS011;30340;52.004;5.908;2022-09-30T17:33:33;2.92;;;2.10;;
42036;SDS011;30340;52.004;5.908;2022-09-30T17:36:05;3.55;;;2.15;;
42036;SDS011;30340;52.004;5.908;2022-09-30T17:38:33;2.75;;;1.88;;
42036;SDS011;30340;52.004;5.908;2022-09-30T17:41:00;3.67;;;2.10;;
42036;SDS011;30340;52.004;5.908;2022-09-30T17:43:44;3.53;;;2.63;;
42036;SDS011;30340;52.004;5.908;2022-09-30T17:46:11;5.72;;;5.13;;
42036;SDS011;30340;52.004;5.908;2022-09-30T17:48:44;3.80;;;2.97;;
42036;SDS011;30340;52.004;5.908;2022-09-30T17:51:11;2.65;;;2.15;;
42036;SDS011;30340;52.004;5.908;2022-09-30T17:53:42;2.87;;;2.17;;
42036;SDS011;30340;52.004;5.908;2022-09-30T17:56:13;4.00;;;2.53;;
42036;SDS011;30340;52.004;5.908;2022-09-30T17:58:43;2.53;;;2.13;;
42036;SDS011;30340;52.004;5.908;2022-09-30T18:01:13;4.05;;;2.15;;
42036;SDS011;30340;52.004;5.908;2022-09-30T18:03:40;3.72;;;2.58;;
42036;SDS011;30340;52.004;5.908;2022-09-30T18:06:06;2.90;;;2.10;;
42036;SDS011;30340;52.004;5.908;2022-09-30T18:08:32;3.45;;;2.15;;
42036;SDS011;30340;52.004;5.908;2022-09-30T18:10:58;2.92;;;2.10;;
42036;SDS011;30340;52.004;5.908;2022-09-30T18:13:24;4.43;;;2.35;;
42036;SDS011;30340;52.004;5.908;2022-09-30T18:15:51;3.30;;;2.67;;
42036;SDS011;30340;52.004;5.908;2022-09-30T18:18:16;3.33;;;2.53;;
42036;SDS011;30340;52.004;5.908;2022-09-30T18:20:42;3.00;;;2.70;;
42036;SDS011;30340;52.004;5.908;2022-09-30T18:23:09;3.33;;;2.55;;
42036;SDS011;30340;52.004;5.908;2022-09-30T18:25:36;4.47;;;3.40;;
42036;SDS011;30340;52.004;5.908;2022-09-30T18:28:02;5.35;;;3.33;;
42036;SDS011;30340;52.004;5.908;2022-09-30T18:30:27;3.13;;;2.70;;
42036;SDS011;30340;52.004;5.908;2022-09-30T18:32:53;4.32;;;2.72;;
42036;SDS011;30340;52.004;5.908;2022-09-30T18:35:20;5.30;;;2.80;;
42036;SDS011;30340;52.004;5.908;2022-09-30T18:37:48;3.80;;;2.70;;